Monday, March 02, 2015
16:33 UTC
  |  Log In   |  Register Free
Airport Search:

Jackson-Medgar Wiley Evers International Airport
(KJAN)

FAA data valid effective January 08, 2015 - March 05, 2015 (unless otherwise noted).

 
 
 
 
 
 
 
 
 
 
 
 
 
 

Current Aviation Weather for Jackson-Medgar Wiley Evers International Airport (KJAN)

The most recent METAR observation for KJAN was updated at: 1611
METAR Summary (Translated METAR)
KJAN
021554Z 35006KT 3SM BR OVC002 10/09 A3034 RMK AO2 SLP274 T01000094
KHKS
021553Z 35003KT 2 1/2SM BR OVC003 09/08 A3034 RMK AO2 SLP269 T00940083
(7.6 nm NW from KJAN)
KJVW
060055Z AUTO 10SM CLR 04/01 A3036 RMK AO2
(16.9 nm SW from KJAN)
TAF Summary (Translated TAF)
KJAN
021400Z 0214/0312 36006KT 2SM -DZ BR OVC002 FM021600 03007KT 2SM -SHRA BR OVC005 FM030400 14005KT 1/2SM FG OVC003
KHKS
(7.6 nm NW from KJAN)
021401Z 0214/0312 35006KT 1SM -DZ VCSH OVC003 FM021600 03006KT 2SM -SHRA BR OVC005 FM030400 14005KT 1/2SM FG OVC003
  Airport Weather Conditions for KJAN

 Current Weather at JAN
50° F
Fog/Mist
North winds at 6.9 mph
JAN NOAA Radar

Pressure: 30.34 in
Humidity: 96%
Wind: North at 6.9 MPH (6 KT)
Dew Point: 48.9°F
Visibility: 3.00 mi


Airport Weather Forecast for KJAN

Translated METAR and TAF for KJAN
Translated METAR for KJAN (1633 UTC 02 March 2015)
found at http://aviationweather.gov/adds/metars/
 
METAR text: KJAN 021554Z 35006KT 3SM BR OVC002 10/09 A3034 RMK AO2 SLP274 T01000094
Conditions at: KJAN (JACKSON , MS, US) observed 1554 UTC 02 March 2015
Temperature: 10.0°C (50°F)
Dewpoint: 9.4°C (49°F) [RH = 96%]
Pressure (altimeter): 30.34 inches Hg (1027.5 mb)
[Sea-level pressure: 1027.4 mb]
Winds: from the N (350 degrees) at 7 MPH (6 knots; 3.1 m/s)
Visibility: 3 miles (5 km)
Ceiling: 200 feet AGL
Clouds: overcast cloud deck at 200 feet AGL
Weather: BR  (mist)
Translated TAF for KJAN
Forecast for: KJAN (JACKSON , MS, US)
TAF Text: KJAN 021400Z 0214/0312 36006KT 2SM -DZ BR OVC002
Forecast period: 1400 to 1600 UTC 02 March 2015
Forecast type: FROM: standard forecast or significant change
Winds: from the N (360 degrees) at 7 MPH (6 knots; 3.1 m/s)
Visibility: 2.00 miles (3.22 km)
Ceiling: 200 feet AGL
Clouds: overcast cloud deck at 200 feet AGL
Weather: -DZ BR  (light drizzle, mist)
TAF Text: FM021600 03007KT 2SM -SHRA BR OVC005
Forecast period: 1600 UTC 02 March 2015 to 0400 UTC 03 March 2015
Forecast type: FROM: standard forecast or significant change
Winds: from the NNE (30 degrees) at 8 MPH (7 knots; 3.6 m/s)
Visibility: 2.00 miles (3.22 km)
Ceiling: 500 feet AGL
Clouds: overcast cloud deck at 500 feet AGL
Weather: -SHRA BR  (light rain showers, mist)
TAF Text: FM030400 14005KT 1/2SM FG OVC003
Forecast period: 0400 to 1200 UTC 03 March 2015
Forecast type: FROM: standard forecast or significant change
Winds: from the SE (140 degrees) at 6 MPH (5 knots; 2.6 m/s)
Visibility: 0.50 miles (0.80 km)
Ceiling: 300 feet AGL
Clouds: overcast cloud deck at 300 feet AGL
Weather: FG  (fog)

Find All Airport Services Find A Hotel Find A Rental Car Find A Golf Course Find A Restaurant $100 Hamburger



FBO's on the Field
FBO Company Facility Photos Services Transportation Aviation Fuel Prices: Prices include tax
Catering Weather Repair Courtesy Rental Type 100LL JetA JetA+ MOGAS 8087
 
Atlantic Aviation - JAN

This FBO has not yet been rated
FS:Independent
Last Updated: Feb-26
Login to update fuel prices
SS:
Contact Atlantic Aviation - JANMore FBO Information
 
Add another FBO Facility Photos Catering Weather Repair Courtesy Rental Type 100LL JetA JetA+ MOGAS 8087
Services Transportation Aviation Fuel Prices: Prices include tax


model-print
model-print
model-print
model-print